Time;durP1;ratioP1;P1;durP2;ratioP2;P2;SDS_P1;SDS_P2;PMS_P1;PMS_P2;Temp;Humidity;BMP_temperature;BMP_pressure;BME280_temperature;BME280_humidity;BME280_pressure;Samples;Min_cycle;Max_cycle;Signal;HPM_P1;HPM_P2
2023/06/13 00:00:51;;;;;;;6.97;5.10;;;;;;;-141.84;50.56;20952.13;4990740;28;20234;-57
2023/06/13 00:03:21;;;;;;;5.50;4.90;;;;;;;-141.84;50.81;20923.66;4975584;28;20208;-57
2023/06/13 00:05:51;;;;;;;5.28;4.78;;;;;;;-141.84;50.74;20931.78;4971247;28;20209;-57
2023/06/13 00:08:21;;;;;;;5.53;5.00;;;;;;;-141.84;50.70;20923.66;4970672;28;20258;-58
2023/06/13 00:10:51;;;;;;;7.95;4.95;;;;;;;-141.84;51.42;20868.78;4971468;28;20211;-57
2023/06/13 00:13:20;;;;;;;5.65;5.07;;;;;;;-141.84;51.23;20876.91;4971507;28;20243;-59
2023/06/13 00:15:50;;;;;;;6.45;4.95;;;;;;;-141.84;50.83;20880.97;4971456;28;20243;-59
2023/06/13 00:18:20;;;;;;;5.47;4.95;;;;;;;-141.84;51.28;20840.31;4971136;28;20552;-58
2023/06/13 00:20:49;;;;;;;8.65;4.72;;;;;;;-141.84;51.08;20895.19;4971466;28;20204;-57
2023/06/13 00:23:18;;;;;;;5.18;4.68;;;;;;;-141.84;51.36;20893.16;4972947;28;20228;-57
2023/06/13 00:25:46;;;;;;;6.90;5.22;;;;;;;-141.84;51.51;20933.81;4955512;29;20236;-59
2023/06/13 00:28:16;;;;;;;5.03;4.47;;;;;;;-141.84;51.70;20848.44;4968299;28;20274;-58
2023/06/13 00:30:45;;;;;;;6.07;5.00;;;;;;;-141.84;51.75;20895.19;4975137;28;20468;-58
2023/06/13 00:33:16;;;;;;;5.32;4.82;;;;;;;-141.84;52.13;20893.16;4974465;28;20575;-58
2023/06/13 00:35:45;;;;;;;6.70;4.75;;;;;;;-141.84;52.40;20872.84;4978614;28;20234;-58
2023/06/13 00:38:14;;;;;;;5.85;4.85;;;;;;;-141.84;52.51;20850.47;4994096;28;20340;-58
2023/06/13 00:40:42;;;;;;;6.60;4.72;;;;;;;-141.84;53.44;20791.53;4994152;28;20214;-59
2023/06/13 00:43:12;;;;;;;5.97;4.90;;;;;;;-141.84;52.83;20830.16;4990729;28;20264;-58
2023/06/13 00:45:42;;;;;;;5.53;4.93;;;;;;;-141.84;52.64;20860.66;4974775;28;20300;-58
2023/06/13 00:48:11;;;;;;;6.10;4.85;;;;;;;-141.84;53.32;20817.94;4974311;28;20738;-58
2023/06/13 00:50:43;;;;;;;4.90;4.40;;;;;;;-141.84;53.24;20838.28;4974524;28;20204;-56
2023/06/13 00:53:17;;;;;;;5.22;4.68;;;;;;;-141.84;53.19;20832.19;4974260;28;20189;-58
2023/06/13 00:55:47;;;;;;;5.60;4.70;;;;;;;-141.84;53.92;20777.28;4974423;28;20199;-57
2023/06/13 00:58:17;;;;;;;6.18;5.43;;;;;;;-141.84;53.62;20820.00;4974440;28;20244;-58
2023/06/13 01:00:49;;;;;;;5.93;5.32;;;;;;;-141.84;53.02;20856.56;4974084;28;20239;-60
2023/06/13 01:03:17;;;;;;;5.93;5.43;;;;;;;-141.84;53.77;20797.63;4973818;28;20702;-58
2023/06/13 01:05:48;;;;;;;6.45;5.68;;;;;;;-141.84;53.16;20838.28;4974268;28;20243;-58
2023/06/13 01:08:21;;;;;;;7.40;5.38;;;;;;;-141.84;54.04;20791.53;4973580;28;20295;-59
2023/06/13 01:10:59;;;;;;;7.68;5.40;;;;;;;-141.84;54.71;20773.22;4974106;28;20208;-58
2023/06/13 01:13:34;;;;;;;5.30;4.80;;;;;;;-141.84;54.04;20805.75;4974105;28;20615;-58
2023/06/13 01:16:13;;;;;;;6.50;5.13;;;;;;;-141.84;54.22;20744.78;4973837;28;20198;-56
2023/06/13 01:18:44;;;;;;;5.68;5.18;;;;;;;-141.84;54.13;20773.22;4973878;28;20188;-59
2023/06/13 01:21:14;;;;;;;6.25;5.35;;;;;;;-141.84;54.22;20767.13;4960368;28;20236;-58
2023/06/13 01:23:52;;;;;;;6.72;5.22;;;;;;;-141.84;54.57;20748.84;4954415;29;20691;-57
2023/06/13 01:26:33;;;;;;;5.63;4.82;;;;;;;-141.84;55.38;20746.81;4954426;29;20189;-59
2023/06/13 01:29:04;;;;;;;6.07;5.57;;;;;;;-141.84;55.09;20756.97;4973237;28;20630;-58
2023/06/13 01:31:36;;;;;;;5.70;5.10;;;;;;;-141.84;54.88;20738.66;4973718;28;20192;-56
2023/06/13 01:34:05;;;;;;;5.45;4.95;;;;;;;-141.84;54.69;20775.25;4972930;28;20731;-58
2023/06/13 01:36:34;;;;;;;5.45;4.97;;;;;;;-141.84;54.64;20803.72;4984265;28;20203;-58
2023/06/13 01:39:03;;;;;;;6.00;5.03;;;;;;;-141.84;54.45;20795.59;4992922;28;20491;-58
2023/06/13 01:41:31;;;;;;;5.70;5.20;;;;;;;-141.84;55.75;20736.63;4993180;28;20213;-58
2023/06/13 01:44:00;;;;;;;6.72;5.50;;;;;;;-141.84;54.88;20797.63;4992511;28;20236;-57
2023/06/13 01:46:31;;;;;;;6.07;5.05;;;;;;;-141.84;55.62;20752.91;4992853;28;20298;-59
2023/06/13 01:49:16;;;;;;;5.90;5.30;;;;;;;-141.84;55.24;20740.69;4992780;28;20204;-58
2023/06/13 01:51:49;;;;;;;6.53;5.50;;;;;;;-141.84;55.28;20742.75;4993022;28;20188;-58
2023/06/13 01:54:22;;;;;;;5.93;5.32;;;;;;;-141.84;55.33;20756.97;4992741;28;20322;-57
2023/06/13 01:56:56;;;;;;;5.65;5.15;;;;;;;-141.84;55.83;20738.66;4987749;28;20239;-58
2023/06/13 01:59:26;;;;;;;7.70;5.35;;;;;;;-141.84;55.49;20763.06;4972752;28;20602;-72
2023/06/13 02:01:59;;;;;;;5.60;5.10;;;;;;;-141.84;56.03;20736.63;4973069;28;20216;-72
2023/06/13 02:04:29;;;;;;;6.10;5.35;;;;;;;-141.84;56.58;20728.50;4972470;28;20632;-72
2023/06/13 02:06:57;;;;;;;7.05;5.65;;;;;;;-141.84;55.99;20748.84;4972550;28;20200;-72
2023/06/13 02:09:26;;;;;;;7.70;5.70;;;;;;;-141.84;56.00;20693.94;4972436;28;20567;-72
2023/06/13 02:11:54;;;;;;;7.20;5.80;;;;;;;-141.84;56.51;20687.84;4972633;28;20754;-72
2023/06/13 02:14:23;;;;;;;5.95;5.15;;;;;;;-141.84;57.10;20693.94;4972653;28;20204;-71
2023/06/13 02:16:51;;;;;;;6.57;5.90;;;;;;;-141.84;57.22;20734.59;4964437;28;20292;-72
2023/06/13 02:19:21;;;;;;;6.55;5.55;;;;;;;-141.84;56.68;20724.44;4953628;29;20211;-72
2023/06/13 02:21:50;;;;;;;6.85;5.35;;;;;;;-141.84;57.29;20698.00;4953900;29;20307;-72
2023/06/13 02:24:18;;;;;;;6.53;5.93;;;;;;;-141.84;56.79;20748.84;4953714;29;20212;-72
2023/06/13 02:26:47;;;;;;;5.95;5.45;;;;;;;-141.84;57.10;20693.94;4954645;28;20215;-72
2023/06/13 02:29:16;;;;;;;6.00;5.50;;;;;;;-141.84;57.46;20671.59;4972753;28;20266;-72
2023/06/13 02:31:45;;;;;;;6.65;5.80;;;;;;;-141.84;57.53;20677.69;4972697;28;20287;-71
2023/06/13 02:34:14;;;;;;;6.50;5.90;;;;;;;-141.84;56.60;20665.50;4972686;28;20228;-71
2023/06/13 02:36:43;;;;;;;7.10;6.40;;;;;;;-141.84;56.84;20702.09;4985152;28;20290;-72
2023/06/13 02:39:12;;;;;;;6.93;6.22;;;;;;;-141.84;57.17;20671.59;4993629;28;20290;-72
2023/06/13 02:41:40;;;;;;;6.82;6.22;;;;;;;-141.84;56.89;20649.22;4991907;28;20316;-71
2023/06/13 02:44:09;;;;;;;6.45;5.88;;;;;;;-141.84;56.92;20647.19;4991769;28;20325;-57
2023/06/13 02:46:37;;;;;;;6.07;5.55;;;;;;;-141.84;57.35;20663.47;4990683;28;20302;-58
2023/06/13 02:49:06;;;;;;;8.75;6.63;;;;;;;-141.84;57.43;20630.94;4991641;28;20778;-58
2023/06/13 02:51:35;;;;;;;8.10;6.13;;;;;;;-141.84;57.50;20610.59;4992255;28;20246;-57
2023/06/13 02:54:07;;;;;;;7.95;6.50;;;;;;;-141.84;57.30;20643.13;4978774;28;20243;-58
2023/06/13 02:56:36;;;;;;;7.25;6.30;;;;;;;-141.84;56.04;20675.66;4972054;28;20184;-58
2023/06/13 02:59:04;;;;;;;6.50;5.90;;;;;;;-141.84;56.29;20663.47;4972233;28;20572;-57
2023/06/13 03:01:33;;;;;;;6.38;5.53;;;;;;;-141.84;56.67;20622.81;4971776;28;20243;-59
2023/06/13 03:04:02;;;;;;;6.00;5.50;;;;;;;-141.84;57.16;20616.69;4972123;28;20214;-56
2023/06/13 03:06:31;;;;;;;6.77;6.00;;;;;;;-141.84;56.84;20622.81;4972274;28;20633;-57
2023/06/13 03:08:59;;;;;;;7.47;5.97;;;;;;;-141.84;57.41;20604.50;4971913;28;20631;-58
2023/06/13 03:11:29;;;;;;;7.78;5.28;;;;;;;-141.84;58.15;20541.50;4972635;28;20254;-58
2023/06/13 03:13:58;;;;;;;6.18;5.57;;;;;;;-141.84;57.21;20594.34;4957271;28;20200;-57
2023/06/13 03:16:27;;;;;;;6.97;5.95;;;;;;;-141.84;57.04;20565.88;4953313;29;20205;-57
2023/06/13 03:18:56;;;;;;;7.37;6.10;;;;;;;-141.84;56.06;20667.53;4952962;29;20208;-57
2023/06/13 03:21:24;;;;;;;7.03;6.20;;;;;;;-141.84;56.11;20655.31;4952837;29;20684;-58
2023/06/13 03:23:53;;;;;;;7.57;5.67;;;;;;;-141.84;56.94;20594.34;4953117;29;20273;-58
2023/06/13 03:26:22;;;;;;;6.33;5.83;;;;;;;-141.84;57.26;20586.22;4953528;29;20275;-56
2023/06/13 03:28:52;;;;;;;7.88;7.10;;;;;;;-141.84;56.84;20602.47;4970595;28;20208;-58
2023/06/13 03:31:21;;;;;;;7.17;6.57;;;;;;;-141.84;56.83;20545.56;4971770;28;20227;-73
2023/06/13 03:33:50;;;;;;;6.70;6.10;;;;;;;-141.84;57.24;20576.03;4972900;28;20204;-71
2023/06/13 03:36:19;;;;;;;6.53;5.93;;;;;;;-141.84;57.39;20576.03;4981674;28;20311;-71
2023/06/13 03:38:47;;;;;;;6.80;6.20;;;;;;;-141.84;57.64;20578.09;4992903;28;20324;-72
2023/06/13 03:41:16;;;;;;;7.50;6.20;;;;;;;-141.84;57.46;20588.25;4993686;28;20247;-72
2023/06/13 03:43:44;;;;;;;6.83;5.87;;;;;;;-141.84;57.82;20584.19;4993472;28;20271;-71
2023/06/13 03:46:14;;;;;;;7.07;6.32;;;;;;;-141.84;57.33;20578.09;4994254;28;20279;-73
2023/06/13 03:48:43;;;;;;;6.78;6.15;;;;;;;-141.84;57.55;20596.38;4993042;28;20192;-72
2023/06/13 03:51:12;;;;;;;6.87;6.23;;;;;;;-141.84;57.32;20649.22;4957670;28;20675;-73
2023/06/13 03:53:41;;;;;;;7.03;6.18;;;;;;;-141.84;56.73;20679.72;4971720;28;20295;-73
2023/06/13 03:56:12;;;;;;;8.65;6.50;;;;;;;-141.84;56.58;20645.16;4971918;28;20216;-72
2023/06/13 03:58:40;;;;;;;7.30;6.20;;;;;;;-141.84;56.33;20693.94;4975485;28;20205;-73
2023/06/13 04:01:10;;;;;;;6.97;6.18;;;;;;;-141.84;56.11;20693.94;4974919;28;20200;-73
2023/06/13 04:03:41;;;;;;;7.10;6.30;;;;;;;-141.84;56.30;20693.94;4975072;28;20240;-72
2023/06/13 04:06:10;;;;;;;8.25;5.85;;;;;;;-141.84;56.49;20669.56;4974740;28;20193;-71
2023/06/13 04:08:39;;;;;;;6.97;6.00;;;;;;;-141.84;56.58;20637.03;4971714;28;20689;-73
2023/06/13 04:11:08;;;;;;;6.40;5.80;;;;;;;-141.84;57.43;20687.84;4955722;29;20641;-72
2023/06/13 04:13:36;;;;;;;7.10;6.40;;;;;;;-141.84;57.29;20675.66;4955383;29;20296;-73
2023/06/13 04:16:05;;;;;;;6.40;5.80;;;;;;;-141.84;56.31;20691.91;4955029;29;20303;-74
2023/06/13 04:18:36;;;;;;;6.70;6.10;;;;;;;-141.84;57.11;20706.16;4955476;29;20201;-73
2023/06/13 04:21:08;;;;;;;7.28;6.10;;;;;;;-141.84;57.20;20683.78;4955237;29;20189;-73
2023/06/13 04:23:36;;;;;;;6.93;6.22;;;;;;;-141.84;56.77;20695.97;4955629;29;20325;-73
2023/06/13 04:26:05;;;;;;;9.30;6.30;;;;;;;-141.84;56.37;20754.94;4955588;29;20213;-72
2023/06/13 04:28:35;;;;;;;6.60;5.90;;;;;;;-141.84;56.13;20775.25;4970661;28;20200;-71
2023/06/13 04:31:04;;;;;;;9.40;6.50;;;;;;;-141.84;55.52;20767.13;4974948;28;20650;-73
2023/06/13 04:33:33;;;;;;;6.68;5.95;;;;;;;-141.84;55.78;20793.56;4975094;28;20212;-73
2023/06/13 04:36:05;;;;;;;8.57;6.32;;;;;;;-141.84;55.53;20834.22;4974399;28;20266;-74
2023/06/13 04:38:37;;;;;;;7.43;6.40;;;;;;;-141.84;55.18;20848.44;4974602;28;20224;-73
2023/06/13 04:41:09;;;;;;;7.43;6.10;;;;;;;-141.84;55.10;20844.38;4974644;28;20486;-72
2023/06/13 04:43:41;;;;;;;7.55;5.90;;;;;;;-141.84;54.78;20895.19;4974138;28;20271;-72
2023/06/13 04:46:10;;;;;;;6.43;5.43;;;;;;;-141.84;53.49;20937.91;4973913;28;20208;-70
2023/06/13 04:48:40;;;;;;;7.00;6.30;;;;;;;-141.84;52.95;21047.69;4974413;28;20298;-70
2023/06/13 04:51:09;;;;;;;6.00;5.18;;;;;;;-141.84;49.63;21362.81;4974544;28;20272;-72
2023/06/13 04:53:39;;;;;;;6.63;5.55;;;;;;;-141.84;43.99;21879.25;4974399;28;20286;-71
2023/06/13 04:56:08;;;;;;;5.85;5.28;;;;;;;-141.84;40.28;22314.44;4974428;28;20280;-71
2023/06/13 04:58:36;;;;;;;8.85;5.45;;;;;;;-141.84;36.91;22790.34;4973812;28;20251;-72
2023/06/13 05:01:07;;;;;;;6.93;5.63;;;;;;;-141.84;35.56;23138.16;4973736;28;20250;-71
2023/06/13 05:03:37;;;;;;;5.57;4.97;;;;;;;-141.84;33.97;23492.09;4974177;28;20219;-73
2023/06/13 05:06:06;;;;;;;6.10;5.50;;;;;;;-141.84;32.99;23709.78;4972713;28;20208;-72
2023/06/13 05:08:34;;;;;;;6.97;5.82;;;;;;;-141.84;32.04;23876.59;4973132;28;20295;-72
2023/06/13 05:11:05;;;;;;;5.63;5.07;;;;;;;-141.84;31.35;24196.03;4974132;28;20228;-73
2023/06/13 05:13:33;;;;;;;7.28;5.60;;;;;;;-141.84;30.60;24214.34;4974001;28;20275;-72
2023/06/13 05:16:02;;;;;;;6.65;6.05;;;;;;;-141.84;30.61;24265.22;4974051;28;20457;-72
2023/06/13 05:18:31;;;;;;;6.38;5.72;;;;;;;-141.84;30.62;24338.47;4973609;28;20323;-71
2023/06/13 05:21:00;;;;;;;7.68;5.30;;;;;;;-141.84;30.06;24552.13;4973792;28;20287;-71
2023/06/13 05:23:29;;;;;;;6.68;5.70;;;;;;;-141.84;30.67;24505.31;4973484;28;20667;-71
2023/06/13 05:25:58;;;;;;;8.88;5.43;;;;;;;-141.84;30.19;24552.13;4973891;28;20200;-72
2023/06/13 05:28:28;;;;;;;6.63;5.90;;;;;;;-141.84;29.95;24368.97;4973175;28;20646;-73
2023/06/13 05:30:56;;;;;;;7.72;5.70;;;;;;;-141.84;30.81;24250.97;4973193;28;20770;-73
2023/06/13 05:33:25;;;;;;;7.75;5.80;;;;;;;-141.84;30.77;24234.69;4973345;28;20208;-73
2023/06/13 05:35:53;;;;;;;6.68;6.05;;;;;;;-141.84;30.89;24027.16;4973253;28;20251;-72
2023/06/13 05:38:25;;;;;;;8.40;7.60;;;;;;;-141.84;31.56;23795.22;4974113;28;20192;-72
2023/06/13 05:40:54;;;;;;;11.20;6.18;;;;;;;-141.84;32.51;23404.63;4973514;28;20204;-73
2023/06/13 05:43:23;;;;;;;8.80;5.50;;;;;;;-141.84;34.25;22995.78;4972954;28;20259;-73
2023/06/13 05:45:53;;;;;;;8.52;5.88;;;;;;;-141.84;35.94;22709.00;4973414;28;20215;-72
2023/06/13 05:48:21;;;;;;;8.15;5.80;;;;;;;-141.84;36.60;22471.03;4973289;28;20203;-72
2023/06/13 05:50:50;;;;;;;9.75;5.90;;;;;;;-141.84;37.32;22387.66;4972936;28;20423;-73
2023/06/13 05:53:18;;;;;;;7.20;5.97;;;;;;;-141.84;37.84;22290.03;4973153;28;20228;-72
2023/06/13 05:55:47;;;;;;;7.60;5.90;;;;;;;-141.84;38.79;22184.28;4973084;28;20298;-73
2023/06/13 05:58:15;;;;;;;7.95;5.80;;;;;;;-141.84;39.08;22125.31;4972915;28;20242;-74
2023/06/13 06:00:45;;;;;;;6.05;5.40;;;;;;;-141.84;39.76;22113.13;4972570;28;20207;-72
2023/06/13 06:03:15;;;;;;;9.60;5.60;;;;;;;-141.84;39.15;22117.19;4965125;28;20642;-73
2023/06/13 06:05:44;;;;;;;6.45;5.60;;;;;;;-141.84;39.32;22062.28;4972805;28;20196;-73
2023/06/13 06:08:13;;;;;;;5.78;5.32;;;;;;;-141.84;39.73;22078.53;4972189;28;20626;-73
2023/06/13 06:10:41;;;;;;;6.18;5.03;;;;;;;-141.84;39.16;22082.63;4972903;28;20286;-73
2023/06/13 06:13:10;;;;;;;5.60;5.10;;;;;;;-141.84;39.51;22125.31;4973021;28;20238;-74
2023/06/13 06:15:40;;;;;;;5.88;5.30;;;;;;;-141.84;38.13;22155.81;4972661;28;20232;-73
2023/06/13 06:18:08;;;;;;;6.00;4.70;;;;;;;-141.84;38.40;22153.78;4972733;28;20295;-74
2023/06/13 06:20:39;;;;;;;5.95;4.93;;;;;;;-141.84;38.51;22178.19;4971618;28;20641;-73
2023/06/13 06:23:07;;;;;;;5.93;4.93;;;;;;;-141.84;38.53;22188.34;4972239;28;20236;-73
2023/06/13 06:25:36;;;;;;;6.30;5.22;;;;;;;-141.84;38.54;22222.94;4972310;28;20307;-73
2023/06/13 06:28:04;;;;;;;6.30;5.18;;;;;;;-141.84;38.66;22253.44;4972144;28;20258;-73
2023/06/13 06:30:33;;;;;;;5.35;4.50;;;;;;;-141.84;38.50;22267.66;4972312;28;20211;-73
2023/06/13 06:33:02;;;;;;;8.65;4.82;;;;;;;-141.84;38.20;22275.81;4972352;28;20200;-73
2023/06/13 06:35:30;;;;;;;8.43;5.13;;;;;;;-141.84;38.40;22261.56;4972308;28;20208;-75
2023/06/13 06:38:01;;;;;;;5.45;4.75;;;;;;;-141.84;37.59;22300.22;4972441;28;20295;-72
2023/06/13 06:40:29;;;;;;;5.15;4.65;;;;;;;-141.84;37.71;22253.44;4972241;28;20259;-72
2023/06/13 06:42:58;;;;;;;7.43;4.75;;;;;;;-141.84;37.50;22212.75;4972014;28;20196;-73
2023/06/13 06:45:26;;;;;;;6.45;4.65;;;;;;;-141.84;37.74;22178.19;4972088;28;20195;-72
2023/06/13 06:47:55;;;;;;;4.90;4.40;;;;;;;-141.84;37.67;22198.53;4972233;28;20235;-72
2023/06/13 06:50:24;;;;;;;4.72;4.25;;;;;;;-141.84;37.45;22198.53;4971975;28;20687;-71
2023/06/13 06:52:52;;;;;;;5.95;4.88;;;;;;;-141.84;37.85;22198.53;4972094;28;20286;-72
2023/06/13 06:55:22;;;;;;;5.25;4.72;;;;;;;-141.84;37.54;22155.81;4971813;28;20252;-72
2023/06/13 06:57:53;;;;;;;6.75;4.80;;;;;;;-141.84;37.36;22176.16;4965749;28;20205;-72
2023/06/13 07:00:22;;;;;;;5.53;4.30;;;;;;;-141.84;37.82;22198.53;4952608;29;20220;-72
2023/06/13 07:02:51;;;;;;;7.63;4.68;;;;;;;-141.84;38.51;22241.22;4970766;28;20291;-72
2023/06/13 07:05:20;;;;;;;8.07;4.80;;;;;;;-141.84;37.65;22288.00;4985863;28;20230;-71
2023/06/13 07:07:48;;;;;;;5.80;4.38;;;;;;;-141.84;37.47;22285.97;4971817;28;20513;-72
2023/06/13 07:10:17;;;;;;;7.15;4.78;;;;;;;-141.84;36.97;22302.25;4967867;28;20746;-68
2023/06/13 07:12:47;;;;;;;6.22;4.63;;;;;;;-141.84;36.66;22283.94;4971198;28;20239;-65
2023/06/13 07:15:16;;;;;;;6.75;4.20;;;;;;;-141.84;36.64;22288.00;4971146;28;20239;-66
2023/06/13 07:17:44;;;;;;;6.78;4.40;;;;;;;-141.84;36.20;22290.03;4971359;28;20204;-66
2023/06/13 07:20:13;;;;;;;6.82;4.40;;;;;;;-141.84;36.04;22324.59;4970929;28;20214;-73
2023/06/13 07:22:42;;;;;;;7.15;4.20;;;;;;;-141.84;36.26;22283.94;4971199;28;20547;-72
2023/06/13 07:25:10;;;;;;;5.20;4.70;;;;;;;-141.84;36.41;22253.44;4971271;28;20258;-73
2023/06/13 07:27:39;;;;;;;6.13;4.70;;;;;;;-141.84;35.95;22222.94;4971118;28;20263;-69
2023/06/13 07:30:09;;;;;;;5.07;4.00;;;;;;;-141.84;36.02;22253.44;4971170;28;20207;-70
2023/06/13 07:32:38;;;;;;;5.97;4.30;;;;;;;-141.84;36.11;22253.44;4973968;28;20256;-69
2023/06/13 07:35:07;;;;;;;5.15;4.22;;;;;;;-141.84;36.53;22271.72;4974583;28;20215;-69
2023/06/13 07:37:36;;;;;;;4.38;3.97;;;;;;;-141.84;36.27;22322.56;4974565;28;20207;-69
2023/06/13 07:40:08;;;;;;;5.15;3.90;;;;;;;-141.84;36.03;22320.53;4974758;28;20294;-69
2023/06/13 07:42:36;;;;;;;6.28;4.18;;;;;;;-141.84;34.78;22367.31;4975046;28;20247;-70
2023/06/13 07:45:05;;;;;;;5.78;4.30;;;;;;;-141.84;34.68;22379.53;4974231;28;20238;-68
2023/06/13 07:47:36;;;;;;;5.22;3.88;;;;;;;-141.84;34.88;22379.53;4974840;28;20207;-72
2023/06/13 07:50:05;;;;;;;4.88;4.38;;;;;;;-141.84;35.17;22332.75;4974849;28;20196;-73
2023/06/13 07:52:33;;;;;;;4.90;4.18;;;;;;;-141.84;34.97;22326.66;4974763;28;20224;-75
2023/06/13 07:55:02;;;;;;;5.60;4.03;;;;;;;-141.84;35.43;22304.28;4961112;28;20548;-77
2023/06/13 07:57:31;;;;;;;7.05;4.00;;;;;;;-141.84;36.01;22304.28;4955851;29;20209;-76
2023/06/13 08:00:20;;;;;;;7.63;3.88;;;;;;;-141.84;36.17;22298.16;4955345;29;20220;-77
2023/06/13 08:02:50;;;;;;;5.72;4.43;;;;;;;-141.84;35.00;22371.38;4963954;28;20295;-77
2023/06/13 08:05:19;;;;;;;7.15;3.92;;;;;;;-141.84;34.76;22383.59;4974538;28;20200;-78
2023/06/13 08:07:48;;;;;;;4.75;4.35;;;;;;;-141.84;34.13;22493.41;4974109;28;20208;-66
2023/06/13 08:10:16;;;;;;;6.00;4.10;;;;;;;-141.84;34.15;22487.31;4974209;28;20295;-69
2023/06/13 08:12:45;;;;;;;5.60;4.10;;;;;;;-141.84;34.34;22599.16;4974195;28;20312;-68
2023/06/13 08:15:14;;;;;;;5.75;4.28;;;;;;;-141.84;33.17;22609.34;4973837;28;20230;-69
2023/06/13 08:17:42;;;;;;;4.47;4.07;;;;;;;-141.84;33.72;22664.25;4973967;28;20294;-68
2023/06/13 08:20:13;;;;;;;5.68;4.03;;;;;;;-141.84;33.86;22629.66;4973561;28;20760;-69
2023/06/13 08:22:42;;;;;;;4.53;4.10;;;;;;;-141.84;33.54;22688.66;4954557;29;20642;-71
2023/06/13 08:25:11;;;;;;;5.10;4.10;;;;;;;-141.84;33.38;22737.47;4954855;29;20627;-72
2023/06/13 08:27:42;;;;;;;4.93;4.10;;;;;;;-141.84;33.12;22753.75;4962908;28;20210;-72
2023/06/13 08:30:11;;;;;;;6.10;4.20;;;;;;;-141.84;31.97;22682.56;4973696;28;20239;-67
2023/06/13 08:32:41;;;;;;;8.85;4.32;;;;;;;-141.84;31.78;22584.94;4973531;28;20640;-71
2023/06/13 08:35:12;;;;;;;6.55;4.30;;;;;;;-141.84;32.15;22633.75;4974118;28;20236;-71
2023/06/13 08:37:41;;;;;;;3.90;3.60;;;;;;;-141.84;32.41;22658.16;4974147;28;20662;-79
2023/06/13 08:40:12;;;;;;;4.40;4.00;;;;;;;-141.84;32.58;22709.00;4973978;28;20208;-78
2023/06/13 08:42:41;;;;;;;7.63;4.53;;;;;;;-141.84;32.73;22713.06;4973486;28;20644;-82
2023/06/13 08:45:11;;;;;;;5.60;4.75;;;;;;;-141.84;33.14;22627.63;4973501;28;20232;-78
2023/06/13 08:47:46;;;;;;;5.82;4.53;;;;;;;-141.84;33.36;22570.69;4973888;28;20248;-78
2023/06/13 08:50:24;;;;;;;5.63;5.05;;;;;;;-141.84;34.71;22507.66;4968337;28;20200;-78
2023/06/13 08:52:55;;;;;;;7.18;6.43;;;;;;;-141.84;36.00;22497.47;4954588;29;20252;-71
2023/06/13 08:55:28;;;;;;;9.57;7.97;;;;;;;-141.84;37.38;22493.41;4954437;29;20192;-68
2023/06/13 08:58:01;;;;;;;9.15;8.18;;;;;;;-141.84;37.07;22479.16;4960919;28;20275;-69
2023/06/13 09:00:35;;;;;;;7.65;6.97;;;;;;;-141.84;37.09;22489.34;4954174;29;20213;-68
2023/06/13 09:03:05;;;;;;;8.45;7.68;;;;;;;-141.84;37.03;22525.94;4964963;28;20200;-77
2023/06/13 09:05:35;;;;;;;10.25;7.25;;;;;;;-141.84;37.24;22481.22;4973817;28;20232;-78
2023/06/13 09:08:06;;;;;;;6.75;6.03;;;;;;;-141.84;36.01;22542.22;4973279;28;20193;-70
2023/06/13 09:10:56;;;;;;;7.22;6.13;;;;;;;-141.84;35.17;22548.31;4973199;28;20602;-67
2023/06/13 09:13:25;;;;;;;8.70;5.70;;;;;;;-141.84;35.74;22509.69;4973506;28;20275;-71
2023/06/13 09:15:54;;;;;;;7.47;6.38;;;;;;;-141.84;35.43;22515.78;4973266;28;20206;-70
2023/06/13 09:18:24;;;;;;;8.15;6.07;;;;;;;-141.84;35.65;22483.25;4973161;28;20200;-68
2023/06/13 09:20:54;;;;;;;6.15;5.47;;;;;;;-141.84;34.43;22499.50;4973182;28;20200;-71
2023/06/13 09:23:23;;;;;;;8.98;6.30;;;;;;;-141.84;35.57;22489.34;4972898;28;20750;-70
2023/06/13 09:25:53;;;;;;;6.60;5.78;;;;;;;-141.84;35.38;22525.94;4972805;28;20255;-76
2023/06/13 09:28:29;;;;;;;6.70;5.40;;;;;;;-141.84;34.06;22511.72;4987924;28;20231;-69
2023/06/13 09:30:58;;;;;;;9.70;5.85;;;;;;;-141.84;34.95;22424.25;4992550;28;20203;-70
2023/06/13 09:33:26;;;;;;;6.28;5.68;;;;;;;-141.84;34.51;22387.66;4978530;28;20234;-70
2023/06/13 09:35:56;;;;;;;8.73;5.97;;;;;;;-141.84;34.96;22346.97;4973140;28;20283;-70
2023/06/13 09:38:46;;;;;;;5.68;4.95;;;;;;;-141.84;34.25;22322.56;4972628;28;20608;-69
2023/06/13 09:41:15;;;;;;;5.25;4.75;;;;;;;-141.84;33.54;22322.56;4972716;28;20286;-71
2023/06/13 09:43:44;;;;;;;5.63;4.90;;;;;;;-141.84;32.63;22377.47;4972641;28;20549;-72
2023/06/13 09:46:14;;;;;;;4.88;4.47;;;;;;;-141.84;31.98;22462.91;4969116;28;20228;-70
2023/06/13 09:48:45;;;;;;;6.72;4.90;;;;;;;-141.84;32.41;22507.66;4953482;29;20193;-70
2023/06/13 09:51:15;;;;;;;5.47;4.97;;;;;;;-141.84;32.07;22554.41;4953480;29;20200;-71
2023/06/13 09:53:46;;;;;;;6.85;5.07;;;;;;;-141.84;31.81;22578.81;4953170;29;20280;-65
2023/06/13 09:56:15;;;;;;;6.32;5.00;;;;;;;-141.84;31.66;22619.50;4953158;29;20188;-66
2023/06/13 09:58:44;;;;;;;6.50;4.82;;;;;;;-141.84;32.07;22645.94;4958611;28;20207;-66
2023/06/13 10:01:15;;;;;;;6.25;4.80;;;;;;;-141.84;32.09;22698.81;4972472;28;20242;-66
2023/06/13 10:03:45;;;;;;;5.95;5.05;;;;;;;-141.84;32.05;22826.97;4972404;28;20196;-72
2023/06/13 10:06:15;;;;;;;7.07;4.93;;;;;;;-141.84;30.23;22894.06;4972960;28;20204;-72
2023/06/13 10:08:44;;;;;;;5.13;4.63;;;;;;;-141.84;30.20;22922.56;4971757;28;20418;-73
2023/06/13 10:11:14;;;;;;;4.57;4.18;;;;;;;-141.84;29.82;22926.63;4971885;28;20692;-71
2023/06/13 10:13:49;;;;;;;5.70;4.60;;;;;;;-141.84;30.18;22963.22;4971898;28;20223;-73
2023/06/13 10:16:20;;;;;;;4.63;4.22;;;;;;;-141.84;29.37;22985.59;4972039;28;20711;-72
2023/06/13 10:18:53;;;;;;;5.00;4.55;;;;;;;-141.84;29.27;22985.59;4971968;28;20278;-71
2023/06/13 10:21:23;;;;;;;6.78;4.72;;;;;;;-141.84;29.46;23066.97;4972372;28;20251;-70
2023/06/13 10:23:55;;;;;;;5.40;4.80;;;;;;;-141.84;29.03;23075.09;4971742;28;20216;-69
2023/06/13 10:26:34;;;;;;;9.82;4.90;;;;;;;-141.84;28.39;23093.41;4972194;28;20283;-70
2023/06/13 10:29:32;;;;;;;4.93;4.28;;;;;;;-141.84;28.63;23132.06;4972014;28;20231;-72
2023/06/13 10:32:15;;;;;;;4.90;4.25;;;;;;;-141.84;28.54;23215.47;4971640;28;20660;-73
2023/06/13 10:35:08;;;;;;;5.32;4.80;;;;;;;-141.84;28.18;23229.69;4966424;28;20867;-72
2023/06/13 10:38:05;;;;;;;5.63;4.82;;;;;;;-141.84;27.88;23197.16;4963541;28;20282;-74
2023/06/13 10:41:11;;;;;;;4.53;4.22;;;;;;;-141.84;27.90;23046.63;4971265;28;20291;-72
2023/06/13 10:43:46;;;;;;;5.03;4.45;;;;;;;-141.84;29.00;22953.06;4941054;28;20236;-74
2023/06/13 10:46:16;;;;;;;5.53;4.63;;;;;;;-141.84;29.79;22910.34;4966738;28;20204;-72
2023/06/13 10:48:49;;;;;;;5.85;5.00;;;;;;;-141.84;30.38;22808.66;4970489;28;20664;-73
2023/06/13 10:51:21;;;;;;;5.25;4.85;;;;;;;-141.84;30.82;22765.94;4971256;28;20278;-72
2023/06/13 10:53:58;;;;;;;5.15;4.65;;;;;;;-141.84;30.91;22780.19;4952704;29;20299;-71
2023/06/13 10:56:31;;;;;;;6.00;4.80;;;;;;;-141.84;30.77;22782.22;4977476;28;20227;-73
2023/06/13 10:59:03;;;;;;;6.70;4.57;;;;;;;-141.84;30.14;22951.03;4970844;28;20188;-73
2023/06/13 11:01:33;;;;;;;5.88;5.05;;;;;;;-141.84;30.01;23012.06;4971421;28;20603;-67
2023/06/13 11:04:10;;;;;;;5.85;4.78;;;;;;;-141.84;29.52;23083.25;4971550;28;20199;-69
2023/06/13 11:06:40;;;;;;;5.60;5.10;;;;;;;-141.84;29.32;23150.38;4970972;28;20191;-64
2023/06/13 11:09:21;;;;;;;5.93;5.40;;;;;;;-141.84;28.97;23209.34;4981719;28;20636;-64
2023/06/13 11:11:54;;;;;;;4.80;4.40;;;;;;;-141.84;28.98;23138.16;4971566;28;20259;-70
2023/06/13 11:14:25;;;;;;;6.60;5.05;;;;;;;-141.84;28.62;23172.75;4971506;28;20216;-64
2023/06/13 11:16:55;;;;;;;4.85;4.35;;;;;;;-141.84;29.25;23087.31;4971447;28;20215;-65
2023/06/13 11:19:26;;;;;;;5.05;4.60;;;;;;;-141.84;29.34;23130.03;4971190;28;20204;-65
2023/06/13 11:22:12;;;;;;;6.57;4.95;;;;;;;-141.84;29.06;23152.41;4971499;28;20247;-66
2023/06/13 11:24:42;;;;;;;4.90;4.50;;;;;;;-141.84;28.45;23221.56;4971606;28;20271;-73
2023/06/13 11:27:12;;;;;;;6.80;4.97;;;;;;;-141.84;28.32;23276.47;4967612;28;20193;-70
2023/06/13 11:29:41;;;;;;;5.07;4.63;;;;;;;-141.84;28.70;23284.63;4951902;29;20216;-73
2023/06/13 11:32:12;;;;;;;6.10;4.40;;;;;;;-141.84;28.14;23384.28;4955728;28;20212;-70